WAAA/UPG METAR and TAF weather

Enter ICAO airport designator
Station Type Date Time Source
WAAA METAR 2019/06/19 01:00 UTC NOAA

WAAA 190100Z 15003KT 9999 FEW019 28/24 Q1011 NOSIG


Station Type Date Time Source
WAAA Decoded METAR 2019/06/19 01:00 UTC NOAA

Ujung Pandang / Hasanuddin, Indonesia (WAAA) 05-04S 119-33E 14M
Jun 18, 2019 - 09:00 PM EDT / 2019.06.19 0100 UTC
Wind: from the SSE (150 degrees) at 3 MPH (3 KT):0
Visibility: greater than 7 mile(s):0
Sky conditions: mostly clear
Temperature: 82 F (28 C)
Dew Point: 75 F (24 C)
Relative Humidity: 78%
Pressure (altimeter): 29.85 in. Hg (1011 hPa)
ob: WAAA 190100Z 15003KT 9999 FEW019 28/24 Q1011 NOSIG
cycle: 1

Station Type Date Time Source
WAAA TAF 2019/06/18 18:06 UTC NOAA

TAF WAAA 181700Z 1818/2000 12004KT 8000 FEW019
BECMG 1821/1823 19006KT 9999
BECMG 1903/1905 31010KT

Example: see airport list